sensor_id;sensor_type;location;lat;lon;timestamp;temperature;humidity
33093;DHT22;19456;46.104;12.908;2024-01-27T00:01:13;4.50;99.90
33093;DHT22;19456;46.104;12.908;2024-01-27T00:03:38;4.60;99.90
33093;DHT22;19456;46.104;12.908;2024-01-27T00:06:04;4.60;99.90
33093;DHT22;19456;46.104;12.908;2024-01-27T00:08:30;4.80;99.90
33093;DHT22;19456;46.104;12.908;2024-01-27T00:10:55;4.70;99.90
33093;DHT22;19456;46.104;12.908;2024-01-27T00:13:21;4.40;99.90
33093;DHT22;19456;46.104;12.908;2024-01-27T00:15:46;4.40;99.90
33093;DHT22;19456;46.104;12.908;2024-01-27T00:18:12;4.40;99.90
33093;DHT22;19456;46.104;12.908;2024-01-27T00:20:40;4.20;99.90
33093;DHT22;19456;46.104;12.908;2024-01-27T00:23:05;4.00;99.90
33093;DHT22;19456;46.104;12.908;2024-01-27T00:25:31;4.00;99.90
33093;DHT22;19456;46.104;12.908;2024-01-27T00:27:56;3.90;99.90
33093;DHT22;19456;46.104;12.908;2024-01-27T00:30:22;3.70;99.90
33093;DHT22;19456;46.104;12.908;2024-01-27T00:32:48;3.70;99.90
33093;DHT22;19456;46.104;12.908;2024-01-27T00:35:13;3.50;99.90
33093;DHT22;19456;46.104;12.908;2024-01-27T00:37:40;3.50;99.90
33093;DHT22;19456;46.104;12.908;2024-01-27T00:40:11;3.60;99.90
33093;DHT22;19456;46.104;12.908;2024-01-27T00:42:37;3.60;99.90
33093;DHT22;19456;46.104;12.908;2024-01-27T00:45:03;3.40;99.90
33093;DHT22;19456;46.104;12.908;2024-01-27T00:47:29;3.40;99.90
33093;DHT22;19456;46.104;12.908;2024-01-27T00:49:55;3.30;99.90
33093;DHT22;19456;46.104;12.908;2024-01-27T00:52:20;3.40;99.90
33093;DHT22;19456;46.104;12.908;2024-01-27T00:54:46;3.50;99.90
33093;DHT22;19456;46.104;12.908;2024-01-27T00:57:11;3.60;99.90
33093;DHT22;19456;46.104;12.908;2024-01-27T00:59:37;3.80;99.90
33093;DHT22;19456;46.104;12.908;2024-01-27T01:02:03;3.80;99.90
33093;DHT22;19456;46.104;12.908;2024-01-27T01:04:28;3.70;99.90
33093;DHT22;19456;46.104;12.908;2024-01-27T01:06:54;3.60;99.90
33093;DHT22;19456;46.104;12.908;2024-01-27T01:09:19;3.50;99.90
33093;DHT22;19456;46.104;12.908;2024-01-27T01:11:45;3.40;99.90
33093;DHT22;19456;46.104;12.908;2024-01-27T01:14:10;3.40;99.90
33093;DHT22;19456;46.104;12.908;2024-01-27T01:16:36;3.30;99.90
33093;DHT22;19456;46.104;12.908;2024-01-27T01:19:02;3.20;99.90
33093;DHT22;19456;46.104;12.908;2024-01-27T01:21:28;3.30;99.90
33093;DHT22;19456;46.104;12.908;2024-01-27T01:23:54;3.50;99.90
33093;DHT22;19456;46.104;12.908;2024-01-27T01:26:20;3.70;99.90
33093;DHT22;19456;46.104;12.908;2024-01-27T01:28:45;3.60;99.90
33093;DHT22;19456;46.104;12.908;2024-01-27T01:31:12;3.20;99.90
33093;DHT22;19456;46.104;12.908;2024-01-27T01:33:38;2.50;99.90
33093;DHT22;19456;46.104;12.908;2024-01-27T01:36:03;2.30;99.90
33093;DHT22;19456;46.104;12.908;2024-01-27T01:38:29;2.20;99.90
33093;DHT22;19456;46.104;12.908;2024-01-27T01:40:54;2.30;99.90
33093;DHT22;19456;46.104;12.908;2024-01-27T01:43:20;2.40;99.90
33093;DHT22;19456;46.104;12.908;2024-01-27T01:45:49;2.40;99.90
33093;DHT22;19456;46.104;12.908;2024-01-27T01:48:15;2.50;99.90
33093;DHT22;19456;46.104;12.908;2024-01-27T01:50:41;2.40;99.90
33093;DHT22;19456;46.104;12.908;2024-01-27T01:53:07;2.50;99.90
33093;DHT22;19456;46.104;12.908;2024-01-27T01:55:33;2.70;99.90
33093;DHT22;19456;46.104;12.908;2024-01-27T01:57:59;2.70;99.90
33093;DHT22;19456;46.104;12.908;2024-01-27T02:00:25;3.00;99.90
33093;DHT22;19456;46.104;12.908;2024-01-27T02:02:51;2.90;99.90
33093;DHT22;19456;46.104;12.908;2024-01-27T02:05:16;3.00;99.90
33093;DHT22;19456;46.104;12.908;2024-01-27T02:07:42;3.30;99.90
33093;DHT22;19456;46.104;12.908;2024-01-27T02:10:14;3.50;99.90
33093;DHT22;19456;46.104;12.908;2024-01-27T02:12:43;3.80;99.90
33093;DHT22;19456;46.104;12.908;2024-01-27T02:15:11;3.70;99.90
33093;DHT22;19456;46.104;12.908;2024-01-27T02:17:39;3.50;99.90
33093;DHT22;19456;46.104;12.908;2024-01-27T02:20:05;3.20;99.90
33093;DHT22;19456;46.104;12.908;2024-01-27T02:22:35;3.30;99.90
33093;DHT22;19456;46.104;12.908;2024-01-27T02:25:01;3.10;99.90
33093;DHT22;19456;46.104;12.908;2024-01-27T02:27:27;3.00;99.90
33093;DHT22;19456;46.104;12.908;2024-01-27T02:29:53;2.50;99.90
33093;DHT22;19456;46.104;12.908;2024-01-27T02:32:18;2.40;99.90
33093;DHT22;19456;46.104;12.908;2024-01-27T02:34:44;1.90;99.90
33093;DHT22;19456;46.104;12.908;2024-01-27T02:37:09;1.70;99.90
33093;DHT22;19456;46.104;12.908;2024-01-27T02:39:35;1.90;99.90
33093;DHT22;19456;46.104;12.908;2024-01-27T02:42:01;2.10;99.90
33093;DHT22;19456;46.104;12.908;2024-01-27T02:44:27;2.20;99.90
33093;DHT22;19456;46.104;12.908;2024-01-27T02:46:52;2.20;99.90
33093;DHT22;19456;46.104;12.908;2024-01-27T02:49:18;2.30;99.90
33093;DHT22;19456;46.104;12.908;2024-01-27T02:51:43;2.50;99.90
33093;DHT22;19456;46.104;12.908;2024-01-27T02:54:09;2.40;99.90
33093;DHT22;19456;46.104;12.908;2024-01-27T02:56:35;2.50;99.90
33093;DHT22;19456;46.104;12.908;2024-01-27T02:59:00;2.60;99.90
33093;DHT22;19456;46.104;12.908;2024-01-27T03:01:26;2.70;99.90
33093;DHT22;19456;46.104;12.908;2024-01-27T03:03:51;2.60;99.90
33093;DHT22;19456;46.104;12.908;2024-01-27T03:06:17;2.20;99.90
33093;DHT22;19456;46.104;12.908;2024-01-27T03:08:43;1.90;99.90
33093;DHT22;19456;46.104;12.908;2024-01-27T03:11:08;1.80;99.90
33093;DHT22;19456;46.104;12.908;2024-01-27T03:13:34;1.90;99.90
33093;DHT22;19456;46.104;12.908;2024-01-27T03:15:59;2.00;99.90
33093;DHT22;19456;46.104;12.908;2024-01-27T03:18:25;1.90;99.90
33093;DHT22;19456;46.104;12.908;2024-01-27T03:20:50;2.10;99.90
33093;DHT22;19456;46.104;12.908;2024-01-27T03:23:16;2.10;99.90
33093;DHT22;19456;46.104;12.908;2024-01-27T03:25:41;2.00;99.90
33093;DHT22;19456;46.104;12.908;2024-01-27T03:28:07;1.90;99.90
33093;DHT22;19456;46.104;12.908;2024-01-27T03:30:32;1.80;99.90
33093;DHT22;19456;46.104;12.908;2024-01-27T03:32:58;1.40;99.90
33093;DHT22;19456;46.104;12.908;2024-01-27T03:35:23;1.20;99.90
33093;DHT22;19456;46.104;12.908;2024-01-27T03:37:49;1.10;99.90
33093;DHT22;19456;46.104;12.908;2024-01-27T03:40:16;1.20;99.90
33093;DHT22;19456;46.104;12.908;2024-01-27T03:42:42;1.20;99.90
33093;DHT22;19456;46.104;12.908;2024-01-27T03:45:08;1.30;99.90
33093;DHT22;19456;46.104;12.908;2024-01-27T03:47:33;1.60;99.90
33093;DHT22;19456;46.104;12.908;2024-01-27T03:49:59;1.60;99.90
33093;DHT22;19456;46.104;12.908;2024-01-27T03:52:25;1.90;99.90
33093;DHT22;19456;46.104;12.908;2024-01-27T03:54:50;2.40;99.90
33093;DHT22;19456;46.104;12.908;2024-01-27T03:57:16;2.50;99.90
33093;DHT22;19456;46.104;12.908;2024-01-27T03:59:42;2.70;99.90
33093;DHT22;19456;46.104;12.908;2024-01-27T04:02:07;2.90;99.90
33093;DHT22;19456;46.104;12.908;2024-01-27T04:04:33;3.10;99.90
33093;DHT22;19456;46.104;12.908;2024-01-27T04:06:58;3.00;99.90
33093;DHT22;19456;46.104;12.908;2024-01-27T04:09:24;2.60;99.90
33093;DHT22;19456;46.104;12.908;2024-01-27T04:11:50;2.20;99.90
33093;DHT22;19456;46.104;12.908;2024-01-27T04:14:16;2.00;99.90
33093;DHT22;19456;46.104;12.908;2024-01-27T04:16:41;2.00;99.90
33093;DHT22;19456;46.104;12.908;2024-01-27T04:19:07;1.90;99.90
33093;DHT22;19456;46.104;12.908;2024-01-27T04:21:32;1.90;99.90
33093;DHT22;19456;46.104;12.908;2024-01-27T04:23:59;2.10;99.90
33093;DHT22;19456;46.104;12.908;2024-01-27T04:26:25;2.20;99.90
33093;DHT22;19456;46.104;12.908;2024-01-27T04:28:50;2.30;99.90
33093;DHT22;19456;46.104;12.908;2024-01-27T04:31:16;2.20;99.90
33093;DHT22;19456;46.104;12.908;2024-01-27T04:33:41;2.20;99.90
33093;DHT22;19456;46.104;12.908;2024-01-27T04:36:07;2.10;99.90
33093;DHT22;19456;46.104;12.908;2024-01-27T04:38:33;1.90;99.90
33093;DHT22;19456;46.104;12.908;2024-01-27T04:40:59;1.90;99.90
33093;DHT22;19456;46.104;12.908;2024-01-27T04:43:25;1.80;99.90
33093;DHT22;19456;46.104;12.908;2024-01-27T04:45:50;1.80;99.90
33093;DHT22;19456;46.104;12.908;2024-01-27T04:48:16;1.80;99.90
33093;DHT22;19456;46.104;12.908;2024-01-27T04:50:41;2.30;99.90
33093;DHT22;19456;46.104;12.908;2024-01-27T04:53:07;2.40;99.90
33093;DHT22;19456;46.104;12.908;2024-01-27T04:55:32;2.90;99.90
33093;DHT22;19456;46.104;12.908;2024-01-27T04:57:58;3.00;99.90
33093;DHT22;19456;46.104;12.908;2024-01-27T05:00:24;2.80;99.90
33093;DHT22;19456;46.104;12.908;2024-01-27T05:02:52;2.10;99.90
33093;DHT22;19456;46.104;12.908;2024-01-27T05:05:17;1.70;99.90
33093;DHT22;19456;46.104;12.908;2024-01-27T05:07:43;1.70;99.90
33093;DHT22;19456;46.104;12.908;2024-01-27T05:10:12;1.70;99.90
33093;DHT22;19456;46.104;12.908;2024-01-27T05:12:38;1.90;99.90
33093;DHT22;19456;46.104;12.908;2024-01-27T05:15:03;2.00;99.90
33093;DHT22;19456;46.104;12.908;2024-01-27T05:17:30;2.30;99.90
33093;DHT22;19456;46.104;12.908;2024-01-27T05:19:57;2.60;99.90
33093;DHT22;19456;46.104;12.908;2024-01-27T05:22:23;2.70;99.90
33093;DHT22;19456;46.104;12.908;2024-01-27T05:24:48;2.70;99.90
33093;DHT22;19456;46.104;12.908;2024-01-27T05:27:14;2.80;99.90
33093;DHT22;19456;46.104;12.908;2024-01-27T05:29:39;3.00;99.90
33093;DHT22;19456;46.104;12.908;2024-01-27T05:32:06;3.20;99.90
33093;DHT22;19456;46.104;12.908;2024-01-27T05:34:31;3.10;99.90
33093;DHT22;19456;46.104;12.908;2024-01-27T05:36:57;3.10;99.90
33093;DHT22;19456;46.104;12.908;2024-01-27T05:39:22;3.30;99.90
33093;DHT22;19456;46.104;12.908;2024-01-27T05:41:48;3.50;99.90
33093;DHT22;19456;46.104;12.908;2024-01-27T05:44:13;3.50;99.90
33093;DHT22;19456;46.104;12.908;2024-01-27T05:46:39;3.60;99.90
33093;DHT22;19456;46.104;12.908;2024-01-27T05:49:04;3.70;99.90
33093;DHT22;19456;46.104;12.908;2024-01-27T05:51:30;3.70;99.90
33093;DHT22;19456;46.104;12.908;2024-01-27T05:53:55;3.60;99.90
33093;DHT22;19456;46.104;12.908;2024-01-27T05:56:21;2.80;99.90
33093;DHT22;19456;46.104;12.908;2024-01-27T05:58:47;2.00;99.90
33093;DHT22;19456;46.104;12.908;2024-01-27T06:01:12;1.60;99.90
33093;DHT22;19456;46.104;12.908;2024-01-27T06:03:40;1.50;99.90
33093;DHT22;19456;46.104;12.908;2024-01-27T06:06:06;1.50;99.90
33093;DHT22;19456;46.104;12.908;2024-01-27T06:08:31;1.60;99.90
33093;DHT22;19456;46.104;12.908;2024-01-27T06:10:57;2.00;99.90
33093;DHT22;19456;46.104;12.908;2024-01-27T06:13:22;2.30;99.90
33093;DHT22;19456;46.104;12.908;2024-01-27T06:15:48;2.50;99.90
33093;DHT22;19456;46.104;12.908;2024-01-27T06:18:13;2.80;99.90
33093;DHT22;19456;46.104;12.908;2024-01-27T06:20:40;2.90;99.90
33093;DHT22;19456;46.104;12.908;2024-01-27T06:23:08;3.10;99.90
33093;DHT22;19456;46.104;12.908;2024-01-27T06:25:33;3.10;99.90
33093;DHT22;19456;46.104;12.908;2024-01-27T06:27:59;3.20;99.90
33093;DHT22;19456;46.104;12.908;2024-01-27T06:30:24;3.30;99.90
33093;DHT22;19456;46.104;12.908;2024-01-27T06:32:50;3.40;99.90
33093;DHT22;19456;46.104;12.908;2024-01-27T06:35:16;3.40;99.90
33093;DHT22;19456;46.104;12.908;2024-01-27T06:37:41;3.40;99.90
33093;DHT22;19456;46.104;12.908;2024-01-27T06:40:07;3.40;99.90
33093;DHT22;19456;46.104;12.908;2024-01-27T06:42:34;3.20;99.90
33093;DHT22;19456;46.104;12.908;2024-01-27T06:45:00;3.20;99.90
33093;DHT22;19456;46.104;12.908;2024-01-27T06:47:25;3.20;99.90
33093;DHT22;19456;46.104;12.908;2024-01-27T06:49:51;3.20;99.90
33093;DHT22;19456;46.104;12.908;2024-01-27T06:52:16;3.40;99.90
33093;DHT22;19456;46.104;12.908;2024-01-27T06:54:49;3.50;99.90
33093;DHT22;19456;46.104;12.908;2024-01-27T07:00:06;2.80;99.90
33093;DHT22;19456;46.104;12.908;2024-01-27T07:02:33;2.60;99.90
33093;DHT22;19456;46.104;12.908;2024-01-27T07:04:59;2.40;99.90
33093;DHT22;19456;46.104;12.908;2024-01-27T07:07:29;2.50;99.90
33093;DHT22;19456;46.104;12.908;2024-01-27T07:10:06;2.70;99.90
33093;DHT22;19456;46.104;12.908;2024-01-27T07:12:36;2.60;99.90
33093;DHT22;19456;46.104;12.908;2024-01-27T07:15:02;2.60;99.90
33093;DHT22;19456;46.104;12.908;2024-01-27T07:17:28;2.70;99.90
33093;DHT22;19456;46.104;12.908;2024-01-27T07:19:54;2.60;99.90
33093;DHT22;19456;46.104;12.908;2024-01-27T07:22:32;2.60;99.90
33093;DHT22;19456;46.104;12.908;2024-01-27T07:24:58;2.60;99.90
33093;DHT22;19456;46.104;12.908;2024-01-27T07:27:24;2.30;99.90
33093;DHT22;19456;46.104;12.908;2024-01-27T07:29:51;2.30;99.90
33093;DHT22;19456;46.104;12.908;2024-01-27T07:32:17;2.30;99.90
33093;DHT22;19456;46.104;12.908;2024-01-27T07:34:42;2.30;99.90
33093;DHT22;19456;46.104;12.908;2024-01-27T07:37:08;2.30;99.90
33093;DHT22;19456;46.104;12.908;2024-01-27T07:39:34;2.30;99.90
33093;DHT22;19456;46.104;12.908;2024-01-27T07:41:59;2.10;99.90
33093;DHT22;19456;46.104;12.908;2024-01-27T07:44:25;2.20;99.90
33093;DHT22;19456;46.104;12.908;2024-01-27T07:46:50;2.30;99.90
33093;DHT22;19456;46.104;12.908;2024-01-27T07:49:18;2.40;99.90
33093;DHT22;19456;46.104;12.908;2024-01-27T07:51:43;2.50;99.90
33093;DHT22;19456;46.104;12.908;2024-01-27T07:54:09;2.70;99.90
33093;DHT22;19456;46.104;12.908;2024-01-27T07:56:34;2.90;99.90
33093;DHT22;19456;46.104;12.908;2024-01-27T07:59:00;3.00;99.90
33093;DHT22;19456;46.104;12.908;2024-01-27T08:01:27;3.20;99.90
33093;DHT22;19456;46.104;12.908;2024-01-27T08:03:54;3.30;99.90
33093;DHT22;19456;46.104;12.908;2024-01-27T08:06:27;3.40;99.90
33093;DHT22;19456;46.104;12.908;2024-01-27T08:08:52;3.50;99.90
33093;DHT22;19456;46.104;12.908;2024-01-27T08:11:23;3.60;99.90
33093;DHT22;19456;46.104;12.908;2024-01-27T08:13:49;3.70;99.90
33093;DHT22;19456;46.104;12.908;2024-01-27T08:16:16;3.70;99.90
33093;DHT22;19456;46.104;12.908;2024-01-27T08:18:44;3.90;99.90
33093;DHT22;19456;46.104;12.908;2024-01-27T08:21:10;4.10;99.90
33093;DHT22;19456;46.104;12.908;2024-01-27T08:23:37;4.20;99.90
33093;DHT22;19456;46.104;12.908;2024-01-27T08:26:02;4.30;99.90
33093;DHT22;19456;46.104;12.908;2024-01-27T08:28:29;4.40;99.90
33093;DHT22;19456;46.104;12.908;2024-01-27T08:30:56;4.40;99.90
33093;DHT22;19456;46.104;12.908;2024-01-27T08:33:21;4.40;99.90
33093;DHT22;19456;46.104;12.908;2024-01-27T08:35:47;4.60;99.90
33093;DHT22;19456;46.104;12.908;2024-01-27T08:38:17;4.70;99.90
33093;DHT22;19456;46.104;12.908;2024-01-27T08:40:44;4.90;99.90
33093;DHT22;19456;46.104;12.908;2024-01-27T08:43:10;5.00;99.90
33093;DHT22;19456;46.104;12.908;2024-01-27T08:45:39;5.20;99.90
33093;DHT22;19456;46.104;12.908;2024-01-27T08:48:05;5.20;99.90
33093;DHT22;19456;46.104;12.908;2024-01-27T08:50:31;5.40;99.90
33093;DHT22;19456;46.104;12.908;2024-01-27T08:52:57;5.50;99.90
33093;DHT22;19456;46.104;12.908;2024-01-27T08:55:23;5.50;99.90
33093;DHT22;19456;46.104;12.908;2024-01-27T08:57:50;5.60;99.90
33093;DHT22;19456;46.104;12.908;2024-01-27T09:00:15;5.80;99.90
33093;DHT22;19456;46.104;12.908;2024-01-27T09:02:42;6.00;99.90
33093;DHT22;19456;46.104;12.908;2024-01-27T09:05:09;6.20;99.90
33093;DHT22;19456;46.104;12.908;2024-01-27T09:07:35;6.30;99.90
33093;DHT22;19456;46.104;12.908;2024-01-27T09:10:01;6.50;99.90
33093;DHT22;19456;46.104;12.908;2024-01-27T09:12:28;6.80;99.90
33093;DHT22;19456;46.104;12.908;2024-01-27T09:14:54;6.90;99.90
33093;DHT22;19456;46.104;12.908;2024-01-27T09:17:20;7.00;99.90
33093;DHT22;19456;46.104;12.908;2024-01-27T09:19:45;7.20;99.90
33093;DHT22;19456;46.104;12.908;2024-01-27T09:22:11;7.30;99.90
33093;DHT22;19456;46.104;12.908;2024-01-27T09:24:38;7.40;99.90
33093;DHT22;19456;46.104;12.908;2024-01-27T09:27:04;7.50;99.90
33093;DHT22;19456;46.104;12.908;2024-01-27T09:29:30;7.50;99.90
33093;DHT22;19456;46.104;12.908;2024-01-27T09:31:56;7.60;99.90
33093;DHT22;19456;46.104;12.908;2024-01-27T09:34:21;7.80;99.90
33093;DHT22;19456;46.104;12.908;2024-01-27T09:36:47;7.80;99.90
33093;DHT22;19456;46.104;12.908;2024-01-27T09:39:22;7.90;99.90
33093;DHT22;19456;46.104;12.908;2024-01-27T09:42:09;8.00;99.90
33093;DHT22;19456;46.104;12.908;2024-01-27T09:44:35;8.20;99.90
33093;DHT22;19456;46.104;12.908;2024-01-27T09:47:00;8.30;99.90
33093;DHT22;19456;46.104;12.908;2024-01-27T09:49:28;8.40;99.90
33093;DHT22;19456;46.104;12.908;2024-01-27T09:51:59;8.50;99.90
33093;DHT22;19456;46.104;12.908;2024-01-27T09:54:25;8.60;99.90
33093;DHT22;19456;46.104;12.908;2024-01-27T09:56:52;8.70;99.90
33093;DHT22;19456;46.104;12.908;2024-01-27T09:59:22;8.80;99.90
33093;DHT22;19456;46.104;12.908;2024-01-27T10:01:49;8.90;99.90
33093;DHT22;19456;46.104;12.908;2024-01-27T10:04:16;9.10;99.90
33093;DHT22;19456;46.104;12.908;2024-01-27T10:06:44;9.20;99.90
33093;DHT22;19456;46.104;12.908;2024-01-27T10:09:09;9.30;99.90
33093;DHT22;19456;46.104;12.908;2024-01-27T10:11:39;9.40;99.90
33093;DHT22;19456;46.104;12.908;2024-01-27T10:14:26;9.50;99.90
33093;DHT22;19456;46.104;12.908;2024-01-27T10:16:52;9.60;99.90
33093;DHT22;19456;46.104;12.908;2024-01-27T10:19:18;9.60;99.90
33093;DHT22;19456;46.104;12.908;2024-01-27T10:21:44;9.70;99.90
33093;DHT22;19456;46.104;12.908;2024-01-27T10:24:09;9.70;99.90
33093;DHT22;19456;46.104;12.908;2024-01-27T10:26:35;9.80;99.90
33093;DHT22;19456;46.104;12.908;2024-01-27T10:29:01;9.90;99.90
33093;DHT22;19456;46.104;12.908;2024-01-27T10:31:28;9.90;99.90
33093;DHT22;19456;46.104;12.908;2024-01-27T10:33:57;10.00;99.90
33093;DHT22;19456;46.104;12.908;2024-01-27T10:36:24;10.10;99.90
33093;DHT22;19456;46.104;12.908;2024-01-27T10:38:51;10.20;99.90
33093;DHT22;19456;46.104;12.908;2024-01-27T10:41:24;10.30;99.90
33093;DHT22;19456;46.104;12.908;2024-01-27T10:43:51;10.30;99.90
33093;DHT22;19456;46.104;12.908;2024-01-27T10:46:19;10.40;99.90
33093;DHT22;19456;46.104;12.908;2024-01-27T10:48:50;10.40;99.90
33093;DHT22;19456;46.104;12.908;2024-01-27T10:51:22;10.60;99.90
33093;DHT22;19456;46.104;12.908;2024-01-27T10:53:49;10.70;99.90
33093;DHT22;19456;46.104;12.908;2024-01-27T10:59:13;11.20;99.90
33093;DHT22;19456;46.104;12.908;2024-01-27T11:01:40;11.30;99.90
33093;DHT22;19456;46.104;12.908;2024-01-27T11:04:12;11.50;99.90
33093;DHT22;19456;46.104;12.908;2024-01-27T11:06:42;11.70;99.90
33093;DHT22;19456;46.104;12.908;2024-01-27T11:09:10;11.90;99.90
33093;DHT22;19456;46.104;12.908;2024-01-27T11:12:05;12.10;99.90
33093;DHT22;19456;46.104;12.908;2024-01-27T11:14:37;12.50;99.90
33093;DHT22;19456;46.104;12.908;2024-01-27T11:17:03;12.80;99.90
33093;DHT22;19456;46.104;12.908;2024-01-27T11:19:28;13.20;99.90
33093;DHT22;19456;46.104;12.908;2024-01-27T11:22:01;13.70;99.90
33093;DHT22;19456;46.104;12.908;2024-01-27T11:24:27;14.30;99.90
33093;DHT22;19456;46.104;12.908;2024-01-27T11:27:02;14.90;99.90
33093;DHT22;19456;46.104;12.908;2024-01-27T11:29:31;15.30;99.90
33093;DHT22;19456;46.104;12.908;2024-01-27T11:32:02;16.00;99.90
33093;DHT22;19456;46.104;12.908;2024-01-27T11:34:28;16.50;99.90
33093;DHT22;19456;46.104;12.908;2024-01-27T11:36:53;16.90;99.90
33093;DHT22;19456;46.104;12.908;2024-01-27T11:39:26;17.20;99.90
33093;DHT22;19456;46.104;12.908;2024-01-27T11:42:13;17.20;99.90
33093;DHT22;19456;46.104;12.908;2024-01-27T11:45:05;17.40;99.90
33093;DHT22;19456;46.104;12.908;2024-01-27T11:47:32;17.90;99.90
33093;DHT22;19456;46.104;12.908;2024-01-27T11:49:57;18.20;99.90
33093;DHT22;19456;46.104;12.908;2024-01-27T11:52:23;18.80;99.90
33093;DHT22;19456;46.104;12.908;2024-01-27T11:57:24;20.10;99.90
33093;DHT22;19456;46.104;12.908;2024-01-27T11:59:51;20.10;98.80
33093;DHT22;19456;46.104;12.908;2024-01-27T12:02:16;20.00;98.70
33093;DHT22;19456;46.104;12.908;2024-01-27T12:04:42;20.00;97.60
33093;DHT22;19456;46.104;12.908;2024-01-27T12:07:08;20.30;96.40
33093;DHT22;19456;46.104;12.908;2024-01-27T12:09:35;20.80;95.70
33093;DHT22;19456;46.104;12.908;2024-01-27T12:12:01;21.10;94.60
33093;DHT22;19456;46.104;12.908;2024-01-27T12:14:37;21.70;93.10
33093;DHT22;19456;46.104;12.908;2024-01-27T12:17:03;22.30;91.40
33093;DHT22;19456;46.104;12.908;2024-01-27T12:19:29;22.90;86.60
33093;DHT22;19456;46.104;12.908;2024-01-27T12:21:56;22.20;82.70
33093;DHT22;19456;46.104;12.908;2024-01-27T12:24:23;21.30;85.40
33093;DHT22;19456;46.104;12.908;2024-01-27T12:26:49;21.80;85.50
33093;DHT22;19456;46.104;12.908;2024-01-27T12:29:15;22.50;84.30
33093;DHT22;19456;46.104;12.908;2024-01-27T12:31:40;23.30;79.40
33093;DHT22;19456;46.104;12.908;2024-01-27T12:34:06;23.80;71.10
33093;DHT22;19456;46.104;12.908;2024-01-27T12:36:32;24.20;67.60
33093;DHT22;19456;46.104;12.908;2024-01-27T12:38:58;23.40;67.00
33093;DHT22;19456;46.104;12.908;2024-01-27T12:41:25;24.60;65.30
33093;DHT22;19456;46.104;12.908;2024-01-27T12:43:52;24.60;62.10
33093;DHT22;19456;46.104;12.908;2024-01-27T12:46:18;25.50;59.40
33093;DHT22;19456;46.104;12.908;2024-01-27T12:48:44;25.60;57.60
33093;DHT22;19456;46.104;12.908;2024-01-27T12:51:10;26.40;55.90
33093;DHT22;19456;46.104;12.908;2024-01-27T12:53:36;26.40;54.20
33093;DHT22;19456;46.104;12.908;2024-01-27T12:56:04;26.40;54.00
33093;DHT22;19456;46.104;12.908;2024-01-27T12:58:29;26.50;52.50
33093;DHT22;19456;46.104;12.908;2024-01-27T13:00:55;25.60;53.00
33093;DHT22;19456;46.104;12.908;2024-01-27T13:03:20;26.80;52.60
33093;DHT22;19456;46.104;12.908;2024-01-27T13:05:46;27.00;51.70
33093;DHT22;19456;46.104;12.908;2024-01-27T13:08:13;26.00;51.60
33093;DHT22;19456;46.104;12.908;2024-01-27T13:10:38;25.60;53.50
33093;DHT22;19456;46.104;12.908;2024-01-27T13:13:04;26.10;51.80
33093;DHT22;19456;46.104;12.908;2024-01-27T13:15:30;26.80;50.70
33093;DHT22;19456;46.104;12.908;2024-01-27T13:17:55;27.40;50.10
33093;DHT22;19456;46.104;12.908;2024-01-27T13:20:21;25.90;48.70
33093;DHT22;19456;46.104;12.908;2024-01-27T13:22:46;23.70;52.10
33093;DHT22;19456;46.104;12.908;2024-01-27T13:25:12;23.20;54.40
33093;DHT22;19456;46.104;12.908;2024-01-27T13:27:38;23.50;54.40
33093;DHT22;19456;46.104;12.908;2024-01-27T13:30:03;24.50;53.90
33093;DHT22;19456;46.104;12.908;2024-01-27T13:32:29;24.90;53.10
33093;DHT22;19456;46.104;12.908;2024-01-27T13:34:55;26.50;51.50
33093;DHT22;19456;46.104;12.908;2024-01-27T13:37:20;27.50;49.80
33093;DHT22;19456;46.104;12.908;2024-01-27T13:39:47;28.40;49.00
33093;DHT22;19456;46.104;12.908;2024-01-27T13:42:13;28.20;47.90
33093;DHT22;19456;46.104;12.908;2024-01-27T13:44:38;27.80;48.00
33093;DHT22;19456;46.104;12.908;2024-01-27T13:47:04;27.70;48.00
33093;DHT22;19456;46.104;12.908;2024-01-27T13:49:33;27.50;47.90
33093;DHT22;19456;46.104;12.908;2024-01-27T13:51:59;27.20;49.30
33093;DHT22;19456;46.104;12.908;2024-01-27T13:54:24;27.80;47.60
33093;DHT22;19456;46.104;12.908;2024-01-27T13:56:50;27.70;47.20
33093;DHT22;19456;46.104;12.908;2024-01-27T13:59:19;27.10;48.50
33093;DHT22;19456;46.104;12.908;2024-01-27T14:01:44;26.70;48.30
33093;DHT22;19456;46.104;12.908;2024-01-27T14:04:10;26.70;49.40
33093;DHT22;19456;46.104;12.908;2024-01-27T14:06:35;27.20;48.90
33093;DHT22;19456;46.104;12.908;2024-01-27T14:09:01;27.40;46.90
33093;DHT22;19456;46.104;12.908;2024-01-27T14:11:27;27.20;46.70
33093;DHT22;19456;46.104;12.908;2024-01-27T14:13:53;26.40;48.00
33093;DHT22;19456;46.104;12.908;2024-01-27T14:16:19;27.10;47.80
33093;DHT22;19456;46.104;12.908;2024-01-27T14:18:45;26.90;47.90
33093;DHT22;19456;46.104;12.908;2024-01-27T14:21:11;27.00;48.40
33093;DHT22;19456;46.104;12.908;2024-01-27T14:23:36;26.40;49.00
33093;DHT22;19456;46.104;12.908;2024-01-27T14:26:03;25.90;50.30
33093;DHT22;19456;46.104;12.908;2024-01-27T14:28:28;26.10;49.80
33093;DHT22;19456;46.104;12.908;2024-01-27T14:30:54;26.40;49.30
33093;DHT22;19456;46.104;12.908;2024-01-27T14:33:19;26.30;48.50
33093;DHT22;19456;46.104;12.908;2024-01-27T14:35:46;26.10;48.00
33093;DHT22;19456;46.104;12.908;2024-01-27T14:38:13;25.90;49.60
33093;DHT22;19456;46.104;12.908;2024-01-27T14:40:38;25.10;50.30
33093;DHT22;19456;46.104;12.908;2024-01-27T14:43:04;23.20;52.70
33093;DHT22;19456;46.104;12.908;2024-01-27T14:45:35;21.30;56.00
33093;DHT22;19456;46.104;12.908;2024-01-27T14:48:01;20.00;58.50
33093;DHT22;19456;46.104;12.908;2024-01-27T14:50:27;19.30;60.00
33093;DHT22;19456;46.104;12.908;2024-01-27T14:52:53;18.10;65.00
33093;DHT22;19456;46.104;12.908;2024-01-27T14:55:19;17.30;67.20
33093;DHT22;19456;46.104;12.908;2024-01-27T14:57:44;16.90;68.40
33093;DHT22;19456;46.104;12.908;2024-01-27T15:00:10;16.20;70.60
33093;DHT22;19456;46.104;12.908;2024-01-27T15:02:36;15.60;73.90
33093;DHT22;19456;46.104;12.908;2024-01-27T15:05:01;15.10;75.80
33093;DHT22;19456;46.104;12.908;2024-01-27T15:07:27;15.00;75.50
33093;DHT22;19456;46.104;12.908;2024-01-27T15:09:55;14.60;78.70
33093;DHT22;19456;46.104;12.908;2024-01-27T15:12:21;14.40;77.60
33093;DHT22;19456;46.104;12.908;2024-01-27T15:14:46;14.30;79.50
33093;DHT22;19456;46.104;12.908;2024-01-27T15:17:12;13.90;82.50
33093;DHT22;19456;46.104;12.908;2024-01-27T15:19:38;13.80;80.50
33093;DHT22;19456;46.104;12.908;2024-01-27T15:22:03;13.80;81.40
33093;DHT22;19456;46.104;12.908;2024-01-27T15:24:29;13.80;82.10
33093;DHT22;19456;46.104;12.908;2024-01-27T15:26:58;13.60;84.20
33093;DHT22;19456;46.104;12.908;2024-01-27T15:29:24;13.50;84.40